Time;durP1;ratioP1;P1;durP2;ratioP2;P2;SDS_P1;SDS_P2;PMS_P1;PMS_P2;Temp;Humidity;BMP_temperature;BMP_pressure;BME280_temperature;BME280_humidity;BME280_pressure;Samples;Min_cycle;Max_cycle;Signal;HPM_P1;HPM_P2
2022/03/03 00:01:11;;;;;;;2.07;1.90;;;13.70;99.90;;;;;;5064406;28;20532;-67
2022/03/03 00:03:42;;;;;;;2.63;2.33;;;13.50;99.90;;;;;;5067999;28;20440;-67
2022/03/03 00:06:13;;;;;;;3.60;2.40;;;13.40;99.90;;;;;;5063079;28;20464;-68
2022/03/03 00:08:44;;;;;;;2.20;2.00;;;13.50;99.90;;;;;;5063459;28;20851;-68
2022/03/03 00:11:15;;;;;;;2.80;2.03;;;13.50;99.90;;;;;;5063180;28;20464;-69
2022/03/03 00:13:47;;;;;;;2.00;1.70;;;13.30;99.90;;;;;;5061245;28;20480;-68
2022/03/03 00:16:18;;;;;;;1.53;1.40;;;13.20;99.90;;;;;;5063425;28;20856;-69
2022/03/03 00:18:49;;;;;;;1.90;1.57;;;13.00;99.90;;;;;;5062743;28;20457;-74
2022/03/03 00:21:20;;;;;;;2.03;1.63;;;13.00;99.90;;;;;;5061885;28;20531;-67
2022/03/03 00:23:51;;;;;;;2.60;1.60;;;13.00;99.90;;;;;;5062279;28;20539;-68
2022/03/03 00:26:22;;;;;;;2.10;1.80;;;13.00;99.90;;;;;;5062327;28;20448;-68
2022/03/03 00:28:54;;;;;;;4.67;1.80;;;13.00;99.90;;;;;;5065297;28;20491;-66
2022/03/03 00:31:25;;;;;;;2.30;2.03;;;12.90;99.90;;;;;;5060022;28;20574;-68
2022/03/03 00:33:56;;;;;;;2.00;1.67;;;13.00;99.90;;;;;;5062541;28;20462;-65
2022/03/03 00:36:27;;;;;;;1.63;1.37;;;12.70;99.90;;;;;;5064429;28;20472;-64
2022/03/03 00:38:58;;;;;;;1.63;1.50;;;12.80;99.90;;;;;;5059453;28;20539;-64
2022/03/03 00:41:28;;;;;;;2.20;1.73;;;12.80;99.90;;;;;;5062326;28;20542;-63
2022/03/03 00:44:01;;;;;;;2.70;1.53;;;12.60;99.90;;;;;;5060482;28;20487;-64
2022/03/03 00:46:32;;;;;;;1.50;1.40;;;12.70;99.90;;;;;;5052299;28;20464;-64
2022/03/03 00:49:04;;;;;;;1.30;1.20;;;12.50;99.90;;;;;;5060705;28;21091;-64
2022/03/03 00:51:35;;;;;;;1.73;1.60;;;12.60;99.90;;;;;;5056497;28;20454;-63
2022/03/03 00:54:06;;;;;;;2.00;1.80;;;12.60;99.90;;;;;;5059119;28;20520;-65
2022/03/03 00:56:38;;;;;;;3.00;1.70;;;12.60;99.90;;;;;;5061094;28;20456;-65
2022/03/03 00:59:11;;;;;;;2.03;1.93;;;12.50;99.90;;;;;;5052670;28;20525;-65
2022/03/03 01:01:43;;;;;;;2.40;1.63;;;12.50;99.90;;;;;;5050809;28;20544;-65
2022/03/03 01:04:15;;;;;;;2.90;2.00;;;12.40;99.90;;;;;;5064391;28;20521;-65
2022/03/03 01:06:45;;;;;;;2.60;2.40;;;12.40;99.90;;;;;;5061482;28;20883;-65
2022/03/03 01:09:17;;;;;;;2.60;2.40;;;12.50;99.90;;;;;;5062288;28;20774;-67
2022/03/03 01:11:48;;;;;;;3.00;2.80;;;12.50;99.90;;;;;;5063178;28;20456;-68
2022/03/03 01:14:23;;;;;;;4.43;3.90;;;12.50;99.90;;;;;;5063227;28;20558;-67
2022/03/03 01:16:54;;;;;;;3.27;2.97;;;12.40;99.90;;;;;;5061883;28;20515;-66
2022/03/03 01:19:25;;;;;;;3.50;3.20;;;12.40;99.90;;;;;;5062533;28;20453;-65
2022/03/03 01:21:57;;;;;;;3.00;2.80;;;12.30;99.90;;;;;;5061171;28;21155;-65
2022/03/03 01:24:28;;;;;;;3.93;3.53;;;12.30;99.90;;;;;;5062311;28;20490;-66
2022/03/03 01:27:01;;;;;;;3.73;3.43;;;12.40;99.90;;;;;;5060535;28;20565;-67
2022/03/03 01:29:34;;;;;;;3.27;3.03;;;12.30;99.90;;;;;;5062417;28;20530;-66
2022/03/03 01:32:11;;;;;;;3.20;2.90;;;12.30;99.90;;;;;;5063909;28;20448;-66
2022/03/03 01:34:42;;;;;;;3.70;3.20;;;12.30;99.90;;;;;;5066379;28;20451;-66
2022/03/03 01:37:13;;;;;;;3.27;2.97;;;12.30;99.90;;;;;;5063101;28;20508;-67
2022/03/03 01:39:44;;;;;;;4.87;3.77;;;12.30;99.90;;;;;;5066960;28;20460;-65
2022/03/03 01:42:16;;;;;;;3.40;3.20;;;12.30;99.90;;;;;;5060684;28;20456;-66
2022/03/03 01:44:49;;;;;;;3.40;3.20;;;12.20;99.90;;;;;;5058383;28;20460;-67
2022/03/03 01:47:24;;;;;;;3.17;2.97;;;12.10;99.90;;;;;;5061070;28;20519;-68
2022/03/03 01:49:57;;;;;;;4.40;4.00;;;12.20;99.90;;;;;;5061481;28;20503;-67
2022/03/03 01:52:28;;;;;;;4.00;3.70;;;12.20;99.90;;;;;;5062893;28;20473;-67
2022/03/03 01:55:00;;;;;;;4.37;3.97;;;12.10;99.90;;;;;;5061903;28;20520;-67
2022/03/03 01:57:32;;;;;;;3.90;3.50;;;12.10;99.90;;;;;;5060480;28;20479;-63
2022/03/03 02:00:07;;;;;;;3.53;3.30;;;12.00;99.90;;;;;;5062562;28;20460;-64
2022/03/03 02:02:39;;;;;;;3.63;3.37;;;11.90;99.90;;;;;;5055380;28;20479;-64
2022/03/03 02:05:11;;;;;;;3.60;3.30;;;11.90;99.90;;;;;;5054099;28;20466;-64
2022/03/03 02:07:42;;;;;;;3.97;3.57;;;11.90;99.90;;;;;;5054113;28;20436;-66
2022/03/03 02:10:13;;;;;;;3.33;3.13;;;11.90;99.90;;;;;;5054994;28;22281;-64
2022/03/03 02:12:44;;;;;;;4.20;3.90;;;11.90;99.90;;;;;;5053446;28;20487;-64
2022/03/03 02:15:20;;;;;;;4.60;4.20;;;11.80;99.90;;;;;;5054698;28;20507;-64
2022/03/03 02:17:51;;;;;;;4.97;4.57;;;11.90;99.90;;;;;;5054589;28;20452;-64
2022/03/03 02:20:25;;;;;;;6.33;5.40;;;11.90;99.90;;;;;;5054397;28;20463;-65
2022/03/03 02:22:57;;;;;;;5.33;4.83;;;11.90;99.90;;;;;;5054539;28;20444;-67
2022/03/03 02:25:28;;;;;;;6.40;5.80;;;11.80;99.90;;;;;;5057010;28;20471;-64
2022/03/03 02:27:59;;;;;;;6.20;5.70;;;11.80;99.90;;;;;;5058266;28;20459;-65
2022/03/03 02:30:30;;;;;;;5.50;5.03;;;11.70;99.90;;;;;;5057432;28;22223;-65
2022/03/03 02:33:01;;;;;;;6.10;5.60;;;11.70;99.90;;;;;;5059040;28;20470;-64
2022/03/03 02:35:34;;;;;;;5.90;5.33;;;11.70;99.90;;;;;;5058222;28;20444;-64
2022/03/03 02:38:08;;;;;;;6.30;5.80;;;11.60;99.90;;;;;;5064190;28;20495;-64
2022/03/03 02:40:38;;;;;;;6.50;5.90;;;11.70;99.90;;;;;;5069610;28;20494;-64
2022/03/03 02:43:10;;;;;;;6.93;6.33;;;11.70;99.90;;;;;;5064484;28;20455;-64
2022/03/03 02:45:40;;;;;;;7.67;6.97;;;11.70;99.90;;;;;;5065019;28;20484;-64
2022/03/03 02:48:12;;;;;;;7.90;7.30;;;11.70;99.90;;;;;;5070462;28;20777;-63
2022/03/03 02:50:44;;;;;;;8.03;7.33;;;11.60;99.90;;;;;;5064061;28;20479;-63
2022/03/03 02:53:15;;;;;;;7.97;7.33;;;11.70;99.90;;;;;;5067634;28;20497;-63
2022/03/03 02:55:46;;;;;;;7.83;7.13;;;11.60;99.90;;;;;;5057200;28;20499;-63
2022/03/03 02:58:17;;;;;;;10.50;9.60;;;11.60;99.90;;;;;;5063908;28;20542;-64
2022/03/03 03:00:48;;;;;;;10.70;9.80;;;11.60;99.90;;;;;;5069055;28;20515;-64
2022/03/03 03:03:20;;;;;;;11.13;10.23;;;11.60;99.90;;;;;;5064106;28;20464;-66
2022/03/03 03:05:53;;;;;;;11.90;10.80;;;11.60;99.90;;;;;;5060505;28;20472;-65
2022/03/03 03:08:24;;;;;;;10.50;9.70;;;11.60;99.90;;;;;;5066059;28;20449;-63
2022/03/03 03:10:54;;;;;;;10.30;9.50;;;11.60;99.90;;;;;;5064629;28;20534;-63
2022/03/03 03:13:25;;;;;;;10.60;9.70;;;11.60;99.90;;;;;;5064431;28;20559;-64
2022/03/03 03:15:56;;;;;;;10.30;9.50;;;11.60;99.90;;;;;;5065085;28;20539;-65
2022/03/03 03:18:28;;;;;;;10.70;9.73;;;11.60;99.90;;;;;;5067727;28;20444;-65
2022/03/03 03:21:00;;;;;;;10.00;9.20;;;11.60;99.90;;;;;;5065370;28;20463;-65
2022/03/03 03:23:32;;;;;;;10.30;9.40;;;11.60;99.90;;;;;;5065797;28;20521;-64
2022/03/03 03:26:05;;;;;;;10.77;9.77;;;11.60;99.90;;;;;;5069409;28;20451;-64
2022/03/03 03:28:36;;;;;;;10.70;9.63;;;11.60;99.90;;;;;;5066053;28;20456;-64
2022/03/03 03:31:07;;;;;;;10.07;9.23;;;11.50;99.90;;;;;;5064933;28;20919;-65
2022/03/03 03:33:38;;;;;;;9.27;8.47;;;11.50;99.90;;;;;;5064379;28;20471;-65
2022/03/03 03:36:11;;;;;;;9.17;8.27;;;11.60;99.90;;;;;;5069554;28;20526;-65
2022/03/03 03:38:46;;;;;;;6.27;5.77;;;11.60;99.90;;;;;;5063886;28;20516;-65
2022/03/03 03:41:17;;;;;;;6.53;6.00;;;11.50;99.90;;;;;;5063976;28;20456;-65
2022/03/03 03:43:54;;;;;;;6.03;5.43;;;11.50;99.90;;;;;;5063760;28;20452;-65
2022/03/03 03:46:25;;;;;;;8.60;7.80;;;11.50;99.90;;;;;;5064423;28;20455;-65
2022/03/03 03:48:55;;;;;;;6.63;6.07;;;11.40;99.90;;;;;;5064244;28;20913;-64
2022/03/03 03:51:31;;;;;;;6.53;5.80;;;11.40;99.90;;;;;;5064058;28;20570;-65
2022/03/03 03:54:05;;;;;;;3.53;2.53;;;11.40;99.90;;;;;;5051260;28;20541;-64
2022/03/03 03:56:35;;;;;;;2.57;2.30;;;11.50;99.90;;;;;;5062098;28;20510;-64
2022/03/03 03:59:07;;;;;;;2.90;2.40;;;11.30;99.90;;;;;;5063218;28;20811;-63
2022/03/03 04:01:38;;;;;;;2.63;2.30;;;11.30;99.90;;;;;;5062355;28;20956;-63
2022/03/03 04:04:10;;;;;;;4.13;2.20;;;11.10;99.90;;;;;;5063625;28;20593;-63
2022/03/03 04:06:42;;;;;;;2.87;2.60;;;11.10;99.90;;;;;;5063599;28;20469;-63
2022/03/03 04:09:13;;;;;;;2.77;2.57;;;11.10;99.90;;;;;;5064820;28;20448;-63
2022/03/03 04:11:46;;;;;;;3.43;2.37;;;11.10;99.90;;;;;;5064184;28;20571;-64
2022/03/03 04:14:17;;;;;;;2.53;2.30;;;11.00;99.90;;;;;;5063266;28;20507;-63
2022/03/03 04:16:53;;;;;;;2.00;1.83;;;11.00;99.90;;;;;;5063022;28;20448;-63
2022/03/03 04:19:26;;;;;;;5.27;3.13;;;11.00;99.90;;;;;;5059703;28;20460;-64
2022/03/03 04:21:58;;;;;;;3.90;2.37;;;11.00;99.90;;;;;;5059960;28;20437;-64
2022/03/03 04:24:29;;;;;;;2.47;2.27;;;11.00;99.90;;;;;;5061770;28;20472;-64
2022/03/03 04:27:01;;;;;;;2.40;2.20;;;11.00;99.90;;;;;;5063558;28;20540;-64
2022/03/03 04:29:32;;;;;;;3.47;1.93;;;11.00;99.90;;;;;;5063090;28;20453;-63
2022/03/03 04:32:03;;;;;;;2.60;2.40;;;10.90;99.90;;;;;;5062359;28;20537;-63
2022/03/03 04:34:34;;;;;;;1.90;1.80;;;10.90;99.90;;;;;;5063107;28;20791;-64
2022/03/03 04:37:07;;;;;;;3.43;2.43;;;10.80;99.90;;;;;;5061951;28;20487;-63
2022/03/03 04:39:38;;;;;;;3.00;2.33;;;10.70;99.90;;;;;;5064369;28;20472;-63
2022/03/03 04:42:09;;;;;;;2.90;2.70;;;10.70;99.90;;;;;;5062616;28;21085;-63
2022/03/03 04:45:07;;;;;;;2.60;1.97;;;10.80;99.90;;;;;;5063095;28;20463;-63
2022/03/03 04:47:38;;;;;;;3.90;2.70;;;10.80;99.90;;;;;;5058953;28;20479;-63
2022/03/03 04:50:10;;;;;;;2.70;2.50;;;10.80;99.90;;;;;;5048714;28;20488;-64
2022/03/03 04:52:44;;;;;;;2.90;2.60;;;10.80;99.90;;;;;;5063313;28;20491;-64
2022/03/03 04:55:14;;;;;;;4.33;3.07;;;10.70;99.90;;;;;;5063584;28;20483;-63
2022/03/03 04:57:46;;;;;;;5.43;4.20;;;10.80;99.90;;;;;;5062323;28;20512;-64
2022/03/03 05:00:17;;;;;;;3.53;3.20;;;10.70;99.90;;;;;;5065673;28;20453;-64
2022/03/03 05:02:49;;;;;;;3.37;3.07;;;10.80;99.90;;;;;;5066069;28;20536;-64
2022/03/03 05:05:20;;;;;;;3.37;3.07;;;10.80;99.90;;;;;;5063589;28;20575;-64
2022/03/03 05:07:53;;;;;;;3.23;3.03;;;10.80;99.90;;;;;;5063625;28;21730;-64
2022/03/03 05:10:24;;;;;;;3.63;3.30;;;10.90;99.90;;;;;;5065816;28;20439;-64
2022/03/03 05:12:57;;;;;;;5.37;4.97;;;10.80;99.90;;;;;;5064659;28;21010;-64
2022/03/03 05:15:28;;;;;;;5.40;4.90;;;10.90;99.90;;;;;;5063765;28;20444;-64
2022/03/03 05:18:02;;;;;;;6.03;5.53;;;10.90;99.90;;;;;;5062900;28;20479;-64
2022/03/03 05:20:33;;;;;;;6.07;5.37;;;10.90;99.90;;;;;;5063366;28;20546;-64
2022/03/03 05:23:10;;;;;;;5.93;5.43;;;10.90;99.90;;;;;;5069751;28;20540;-64
2022/03/03 05:25:41;;;;;;;4.83;4.43;;;10.90;99.90;;;;;;5072176;28;20445;-64
2022/03/03 05:28:12;;;;;;;5.13;4.63;;;10.90;99.90;;;;;;5067105;28;20973;-63
2022/03/03 05:30:43;;;;;;;8.63;4.83;;;10.80;99.90;;;;;;5062532;28;20452;-63
2022/03/03 05:33:16;;;;;;;6.40;5.30;;;10.70;99.90;;;;;;5062486;28;20482;-64
2022/03/03 05:35:50;;;;;;;5.60;4.60;;;10.60;99.90;;;;;;5063268;28;20512;-63
2022/03/03 05:38:23;;;;;;;6.73;4.70;;;10.50;99.90;;;;;;5061991;28;20502;-63
2022/03/03 05:40:54;;;;;;;4.73;4.33;;;10.50;99.90;;;;;;5061859;28;20457;-63
2022/03/03 05:43:26;;;;;;;5.60;4.30;;;10.60;99.90;;;;;;5062369;28;20444;-64
2022/03/03 05:45:58;;;;;;;4.83;4.23;;;10.60;99.90;;;;;;5063179;28;20471;-64
2022/03/03 05:48:30;;;;;;;5.63;5.10;;;10.60;99.90;;;;;;5061758;28;20461;-63
2022/03/03 05:51:01;;;;;;;3.93;3.60;;;10.60;99.90;;;;;;5062546;28;20483;-64
2022/03/03 05:53:34;;;;;;;5.13;4.43;;;10.60;99.90;;;;;;5062206;28;20472;-64
2022/03/03 05:56:10;;;;;;;5.70;4.17;;;10.60;99.90;;;;;;5062453;28;20468;-64
2022/03/03 05:58:44;;;;;;;6.00;3.63;;;10.60;99.90;;;;;;5060681;28;20452;-64
2022/03/03 06:01:16;;;;;;;5.87;3.93;;;10.60;99.90;;;;;;5065538;28;20624;-64
2022/03/03 06:03:50;;;;;;;5.40;3.70;;;10.50;99.90;;;;;;5067437;28;20487;-63
2022/03/03 06:06:28;;;;;;;4.60;3.37;;;10.40;99.90;;;;;;5066509;28;20451;-63
2022/03/03 06:09:05;;;;;;;4.00;3.40;;;10.40;99.90;;;;;;5077855;28;20487;-63
2022/03/03 06:11:43;;;;;;;5.73;3.60;;;10.40;99.90;;;;;;5076772;28;20487;-63
2022/03/03 06:14:17;;;;;;;4.63;3.63;;;10.50;99.90;;;;;;5076246;28;20517;-63
2022/03/03 06:16:49;;;;;;;4.63;3.90;;;10.50;99.90;;;;;;5066761;28;20452;-63
2022/03/03 06:19:22;;;;;;;6.27;4.03;;;10.50;99.90;;;;;;5066947;28;20457;-63
2022/03/03 06:21:53;;;;;;;5.03;3.10;;;10.50;99.90;;;;;;5079851;28;20520;-64
2022/03/03 06:24:26;;;;;;;5.50;4.10;;;10.50;99.90;;;;;;5066411;28;20947;-63
2022/03/03 06:26:57;;;;;;;4.13;3.73;;;10.50;99.90;;;;;;5068924;28;20483;-63
2022/03/03 06:29:28;;;;;;;9.73;4.10;;;10.60;99.90;;;;;;5065375;28;22254;-63
2022/03/03 06:31:59;;;;;;;3.80;3.23;;;10.60;99.90;;;;;;5066353;28;20483;-63
2022/03/03 06:34:31;;;;;;;8.03;4.13;;;10.60;99.90;;;;;;5073835;28;20456;-63
2022/03/03 06:37:01;;;;;;;6.13;3.90;;;10.50;99.90;;;;;;5067472;28;20452;-63
2022/03/03 06:39:35;;;;;;;5.10;3.60;;;10.60;99.90;;;;;;5065595;28;20540;-63
2022/03/03 06:42:07;;;;;;;4.23;3.50;;;10.60;99.90;;;;;;5064345;28;20471;-63
2022/03/03 06:44:40;;;;;;;4.73;3.90;;;10.50;99.90;;;;;;5068544;28;20564;-63
2022/03/03 06:47:11;;;;;;;6.90;4.30;;;10.50;99.90;;;;;;5064053;28;20851;-63
2022/03/03 06:49:43;;;;;;;4.87;3.40;;;10.40;99.90;;;;;;5066342;28;20476;-65
2022/03/03 06:52:17;;;;;;;5.53;3.27;;;10.40;99.90;;;;;;5065017;28;20522;-63
2022/03/03 06:54:53;;;;;;;4.40;3.77;;;10.40;99.90;;;;;;5067388;28;20452;-63
2022/03/03 06:57:24;;;;;;;5.20;3.73;;;10.40;99.90;;;;;;5065850;28;20455;-63
2022/03/03 07:00:00;;;;;;;6.77;3.80;;;10.40;99.90;;;;;;5064471;28;20453;-63
2022/03/03 07:02:33;;;;;;;4.97;3.73;;;10.40;99.90;;;;;;5064752;28;20543;-62
2022/03/03 07:05:10;;;;;;;7.20;3.23;;;10.40;99.90;;;;;;5065784;28;20470;-62
2022/03/03 07:07:43;;;;;;;5.37;3.50;;;10.30;99.90;;;;;;5065769;28;20878;-62
2022/03/03 07:10:23;;;;;;;6.67;3.90;;;10.30;99.90;;;;;;5055557;28;20476;-62
2022/03/03 07:12:55;;;;;;;4.50;3.30;;;10.30;99.90;;;;;;5062736;28;20492;-62
2022/03/03 07:15:27;;;;;;;5.47;3.50;;;10.30;99.90;;;;;;5067477;28;20476;-63
2022/03/03 07:18:09;;;;;;;4.07;3.40;;;10.30;99.90;;;;;;5058666;28;20444;-63
2022/03/03 07:20:46;;;;;;;6.70;4.33;;;10.30;99.90;;;;;;5065400;28;20523;-62
2022/03/03 07:23:32;;;;;;;5.60;4.07;;;10.20;99.90;;;;;;5071526;28;20444;-63
2022/03/03 07:26:05;;;;;;;6.40;3.53;;;10.20;99.90;;;;;;5065464;28;20460;-63
2022/03/03 07:28:39;;;;;;;6.33;4.20;;;10.20;99.90;;;;;;5065546;28;20528;-63
2022/03/03 07:31:17;;;;;;;5.73;4.47;;;10.30;99.90;;;;;;5071486;28;20554;-63
2022/03/03 07:33:55;;;;;;;8.23;5.80;;;10.30;99.90;;;;;;5065176;28;20462;-63
2022/03/03 07:36:28;;;;;;;10.70;4.90;;;10.30;99.90;;;;;;5048284;28;20206;-63
2022/03/03 07:39:02;;;;;;;7.13;5.97;;;10.30;99.90;;;;;;5064412;28;20468;-63
2022/03/03 07:41:35;;;;;;;7.67;5.50;;;10.30;99.90;;;;;;5056483;28;20483;-64
2022/03/03 07:44:06;;;;;;;11.17;5.77;;;10.20;99.90;;;;;;5064493;28;20452;-63
2022/03/03 07:46:38;;;;;;;7.80;5.30;;;10.30;99.90;;;;;;5064237;28;20449;-63
2022/03/03 07:49:10;;;;;;;8.97;5.60;;;10.30;99.90;;;;;;5063860;28;20536;-63
2022/03/03 07:51:42;;;;;;;7.80;5.87;;;10.30;99.90;;;;;;5064124;28;20510;-63
2022/03/03 07:54:13;;;;;;;7.87;6.20;;;10.20;99.90;;;;;;5064282;28;20517;-64
2022/03/03 07:56:56;;;;;;;7.70;6.60;;;10.20;99.90;;;;;;5065307;28;20479;-63
2022/03/03 07:59:30;;;;;;;7.70;6.73;;;10.10;99.90;;;;;;5070100;28;20518;-63
2022/03/03 08:07:01;;;;;;;11.37;6.60;;;10.10;99.90;;;;;;5053465;28;20565;-63
2022/03/03 08:21:25;;;;;;;9.13;7.10;;;10.10;99.90;;;;;;5063484;28;20451;-64
2022/03/03 08:53:20;;;;;;;11.43;6.63;;;9.80;99.90;;;;;;5073312;28;20516;-63
2022/03/03 08:55:53;;;;;;;9.90;6.13;;;9.80;99.90;;;;;;5069335;28;20479;-63
2022/03/03 08:58:26;;;;;;;8.60;6.23;;;9.80;99.90;;;;;;5073071;28;20574;-63
2022/03/03 09:00:57;;;;;;;9.03;6.63;;;9.80;99.90;;;;;;5064637;28;20487;-63
2022/03/03 09:03:28;;;;;;;8.53;6.47;;;9.90;99.90;;;;;;5062673;28;20448;-63
2022/03/03 09:06:03;;;;;;;10.40;5.90;;;9.90;99.90;;;;;;5048031;28;20619;-63
2022/03/03 09:08:34;;;;;;;10.53;7.00;;;9.80;99.90;;;;;;5061901;28;20464;-63
2022/03/03 09:11:05;;;;;;;11.03;6.93;;;9.80;99.90;;;;;;5077128;28;20491;-63
2022/03/03 09:13:38;;;;;;;8.57;7.07;;;9.80;99.90;;;;;;5062385;28;20611;-63
2022/03/03 09:16:16;;;;;;;8.77;6.33;;;9.80;99.90;;;;;;5062560;28;20433;-63
2022/03/03 09:18:48;;;;;;;9.60;6.23;;;9.80;99.90;;;;;;5063064;28;20456;-63
2022/03/03 09:21:19;;;;;;;9.67;6.30;;;9.70;99.90;;;;;;5063042;28;20456;-63
2022/03/03 09:23:50;;;;;;;10.77;6.30;;;9.70;99.90;;;;;;5073658;28;21039;-63
2022/03/03 09:26:24;;;;;;;13.20;6.80;;;9.70;99.90;;;;;;5062958;28;20472;-64
2022/03/03 09:28:56;;;;;;;10.70;7.03;;;9.70;99.90;;;;;;5064695;28;20440;-63
2022/03/03 09:31:27;;;;;;;11.80;7.63;;;9.70;99.90;;;;;;5076315;28;20474;-63
2022/03/03 09:33:58;;;;;;;17.70;7.97;;;9.70;99.90;;;;;;5063723;28;20496;-63
2022/03/03 09:36:29;;;;;;;14.07;7.60;;;9.70;99.90;;;;;;5065445;28;20475;-63
2022/03/03 09:39:00;;;;;;;13.33;7.30;;;9.60;99.90;;;;;;5062233;28;20511;-63
2022/03/03 09:41:31;;;;;;;12.60;7.70;;;9.60;99.90;;;;;;5062655;28;20539;-63
2022/03/03 09:44:03;;;;;;;12.70;7.53;;;9.60;99.90;;;;;;5062083;28;20509;-63
2022/03/03 09:46:36;;;;;;;16.17;8.53;;;9.60;99.90;;;;;;5057313;28;20440;-63
2022/03/03 09:49:07;;;;;;;11.07;7.73;;;9.60;99.90;;;;;;5072028;28;20455;-63
2022/03/03 09:51:38;;;;;;;13.60;8.87;;;9.70;99.90;;;;;;5068412;28;20452;-63
2022/03/03 09:54:09;;;;;;;11.38;7.82;;;9.70;99.90;;;;;;5067380;28;20493;-63
2022/03/03 09:56:40;;;;;;;12.60;8.25;;;9.70;99.90;;;;;;5064492;28;20225;-64
2022/03/03 09:59:15;;;;;;;12.30;8.25;;;9.60;99.90;;;;;;5075100;28;20262;-63
2022/03/03 10:01:48;;;;;;;11.80;8.17;;;9.60;99.90;;;;;;5065758;28;20274;-63
2022/03/03 10:04:22;;;;;;;12.13;8.50;;;9.60;99.90;;;;;;5061591;28;20520;-64
2022/03/03 10:06:53;;;;;;;12.03;7.93;;;9.60;99.90;;;;;;5062516;28;20559;-64
2022/03/03 10:09:24;;;;;;;13.53;9.07;;;9.60;99.90;;;;;;5062497;28;20515;-64
2022/03/03 10:12:04;;;;;;;14.77;8.57;;;9.60;99.90;;;;;;5062869;28;20511;-64
2022/03/03 10:14:38;;;;;;;11.60;7.83;;;9.50;99.90;;;;;;5066165;28;20229;-64
2022/03/03 10:17:10;;;;;;;13.43;8.77;;;9.50;99.90;;;;;;5061997;28;20448;-63
2022/03/03 10:19:54;;;;;;;12.70;9.35;;;9.50;99.90;;;;;;5062154;28;20333;-64
2022/03/03 10:22:41;;;;;;;11.95;9.90;;;9.50;99.90;;;;;;5061935;28;20212;-64
2022/03/03 10:25:27;;;;;;;16.80;9.43;;;9.50;99.90;;;;;;5058500;28;20304;-63
2022/03/03 10:28:06;;;;;;;12.27;9.57;;;9.50;99.90;;;;;;5063172;28;20452;-64
2022/03/03 10:30:58;;;;;;;12.20;9.70;;;9.40;99.90;;;;;;5062363;28;20526;-64
2022/03/03 10:33:31;;;;;;;14.48;10.38;;;9.40;99.90;;;;;;5062647;28;20480;-63
2022/03/03 10:36:11;;;;;;;13.30;9.75;;;9.40;99.90;;;;;;5063012;28;20360;-64
2022/03/03 10:38:54;;;;;;;12.32;10.18;;;9.30;99.90;;;;;;5062064;28;20216;-64
2022/03/03 10:41:33;;;;;;;9.80;8.80;;;9.30;99.90;;;;;;5062108;28;20192;-64
2022/03/03 10:44:06;;;;;;;10.57;9.03;;;9.20;99.90;;;;;;5060123;28;20202;-64
2022/03/03 10:46:41;;;;;;;9.77;7.25;;;9.20;99.90;;;;;;5069783;28;20584;-64
2022/03/03 10:49:26;;;;;;;8.10;7.30;;;9.20;99.90;;;;;;5074219;28;20211;-64
2022/03/03 10:52:09;;;;;;;8.25;6.35;;;9.20;99.90;;;;;;5065310;28;20444;-64
2022/03/03 10:54:58;;;;;;;9.90;8.90;;;9.10;99.90;;;;;;5065015;28;20411;-64
2022/03/03 10:57:38;;;;;;;7.65;6.18;;;9.10;99.90;;;;;;5067475;28;20210;-64
2022/03/03 11:00:12;;;;;;;7.25;5.63;;;9.00;99.90;;;;;;5077201;28;20211;-64
2022/03/03 11:02:46;;;;;;;6.88;5.70;;;8.90;99.90;;;;;;5067929;28;20634;-64
2022/03/03 11:05:18;;;;;;;5.90;5.25;;;8.90;99.90;;;;;;5082801;28;20202;-64
2022/03/03 11:07:52;;;;;;;6.18;5.57;;;8.90;99.90;;;;;;5074889;28;20223;-64
2022/03/03 11:10:26;;;;;;;7.75;6.32;;;8.90;99.90;;;;;;5070031;28;20209;-64
2022/03/03 11:12:57;;;;;;;7.68;5.65;;;8.80;99.90;;;;;;5066158;28;20206;-64
2022/03/03 11:15:29;;;;;;;6.83;6.13;;;8.80;99.90;;;;;;5064421;28;20328;-64
2022/03/03 11:18:02;;;;;;;7.53;6.65;;;8.80;99.90;;;;;;5065262;28;20507;-64
2022/03/03 11:20:33;;;;;;;9.20;6.63;;;8.80;99.90;;;;;;5065254;28;20245;-64
2022/03/03 11:23:04;;;;;;;7.22;6.55;;;8.80;99.90;;;;;;5065813;28;20464;-63
2022/03/03 11:25:38;;;;;;;7.22;6.53;;;8.80;99.90;;;;;;5071174;28;20202;-64
2022/03/03 11:28:11;;;;;;;7.63;6.20;;;8.80;99.90;;;;;;5074154;28;20539;-64
2022/03/03 11:30:45;;;;;;;9.90;5.95;;;8.80;99.90;;;;;;5064638;28;20186;-64
2022/03/03 11:33:30;;;;;;;6.63;5.93;;;8.80;99.90;;;;;;5071194;28;20192;-64
2022/03/03 11:36:03;;;;;;;6.40;5.78;;;8.90;99.90;;;;;;5061188;28;20205;-64
2022/03/03 11:38:46;;;;;;;5.20;4.70;;;8.90;99.90;;;;;;5059872;28;20541;-63
2022/03/03 11:41:17;;;;;;;5.00;4.40;;;8.80;99.90;;;;;;5065494;28;20226;-63
2022/03/03 11:43:49;;;;;;;4.68;4.28;;;8.70;99.90;;;;;;5069441;28;20525;-64
2022/03/03 11:46:47;;;;;;;4.97;4.47;;;8.70;99.90;;;;;;5065644;28;20224;-64
2022/03/03 11:49:22;;;;;;;5.35;4.43;;;8.60;99.90;;;;;;5050551;28;20209;-64
2022/03/03 11:51:53;;;;;;;4.10;3.70;;;8.60;99.90;;;;;;5066223;28;20225;-64
2022/03/03 11:54:28;;;;;;;4.00;3.30;;;8.50;99.90;;;;;;5063890;28;20252;-64
2022/03/03 11:57:23;;;;;;;3.83;2.75;;;8.40;99.90;;;;;;5050494;28;20198;-64
2022/03/03 11:59:53;;;;;;;2.05;1.95;;;8.40;99.90;;;;;;5066835;28;20209;-64
2022/03/03 12:02:31;;;;;;;2.20;1.40;;;8.30;99.90;;;;;;5063434;28;20324;-64
2022/03/03 12:05:39;;;;;;;1.38;1.27;;;8.20;99.90;;;;;;5061325;28;20201;-64
2022/03/03 12:08:34;;;;;;;0.50;0.50;;;8.10;99.90;;;;;;5072139;28;20643;-64
2022/03/03 12:11:13;;;;;;;0.77;0.70;;;8.10;99.90;;;;;;5075723;28;20197;-64
2022/03/03 12:13:51;;;;;;;0.38;0.38;;;8.00;99.90;;;;;;5062647;28;20205;-64
2022/03/03 12:16:28;;;;;;;0.40;0.40;;;8.00;99.90;;;;;;5065331;28;20197;-64
2022/03/03 12:19:15;;;;;;;0.40;0.30;;;8.00;99.90;;;;;;5064016;28;20197;-64
2022/03/03 12:21:49;;;;;;;1.23;0.50;;;8.00;99.90;;;;;;5069941;28;20193;-64
2022/03/03 12:24:31;;;;;;;0.50;0.30;;;8.00;99.90;;;;;;5068644;28;20227;-63
2022/03/03 12:27:15;;;;;;;1.10;0.30;;;8.00;99.90;;;;;;5063086;28;20232;-63
2022/03/03 12:29:57;;;;;;;1.85;0.40;;;7.80;99.90;;;;;;5063537;28;20288;-64
2022/03/03 12:32:46;;;;;;;0.40;0.30;;;7.80;99.90;;;;;;5064392;28;20307;-63
2022/03/03 12:35:29;;;;;;;1.70;0.30;;;7.70;99.90;;;;;;5055106;28;20221;-64
2022/03/03 12:38:03;;;;;;;0.65;0.40;;;7.70;99.90;;;;;;5064263;28;20232;-63
2022/03/03 12:40:35;;;;;;;0.80;0.40;;;7.70;99.90;;;;;;5071612;28;20204;-63
2022/03/03 12:43:13;;;;;;;1.58;0.43;;;7.70;99.90;;;;;;5075011;28;20194;-63
2022/03/03 12:45:44;;;;;;;0.30;0.22;;;7.80;99.90;;;;;;5068557;28;20209;-63
2022/03/03 12:48:15;;;;;;;0.30;0.30;;;7.80;99.90;;;;;;5077409;28;20197;-63
2022/03/03 12:50:46;;;;;;;0.40;0.30;;;7.80;99.90;;;;;;5071062;28;20206;-63
2022/03/03 12:53:19;;;;;;;0.40;0.28;;;7.70;99.90;;;;;;5062539;28;20213;-63
2022/03/03 12:55:50;;;;;;;0.65;0.30;;;7.70;99.90;;;;;;5072870;28;20224;-63
2022/03/03 12:58:21;;;;;;;0.30;0.25;;;7.60;99.90;;;;;;5063288;28;20193;-63
2022/03/03 13:00:53;;;;;;;0.40;0.40;;;7.50;99.90;;;;;;5078262;28;20203;-64
2022/03/03 13:03:24;;;;;;;0.60;0.50;;;7.50;99.90;;;;;;5069527;28;20288;-64
2022/03/03 13:05:58;;;;;;;0.75;0.38;;;7.50;99.90;;;;;;5067332;28;20203;-63
2022/03/03 13:08:32;;;;;;;0.40;0.40;;;7.40;99.90;;;;;;5070760;28;20216;-63
2022/03/03 13:11:05;;;;;;;0.55;0.50;;;7.30;99.90;;;;;;5065795;28;20222;-63
2022/03/03 13:13:47;;;;;;;0.52;0.52;;;7.20;99.90;;;;;;5061993;28;20261;-64
2022/03/03 13:16:19;;;;;;;0.65;0.65;;;7.10;99.90;;;;;;5052844;28;20228;-64
2022/03/03 13:18:50;;;;;;;1.63;0.50;;;7.00;99.90;;;;;;5069335;28;20275;-63
2022/03/03 13:21:25;;;;;;;0.50;0.50;;;6.90;99.90;;;;;;5065016;28;20268;-63
2022/03/03 13:24:00;;;;;;;0.40;0.40;;;6.80;99.90;;;;;;5067060;28;20280;-63
2022/03/03 13:26:35;;;;;;;0.73;0.52;;;6.80;99.90;;;;;;5075016;28;20209;-63
2022/03/03 13:29:14;;;;;;;0.63;0.60;;;6.80;99.90;;;;;;5062881;28;20198;-63
2022/03/03 13:31:46;;;;;;;0.73;0.55;;;6.70;99.90;;;;;;5062458;28;20237;-63
2022/03/03 13:34:24;;;;;;;0.60;0.60;;;6.70;99.90;;;;;;5048841;28;20201;-63
2022/03/03 13:36:55;;;;;;;1.25;0.63;;;6.60;99.90;;;;;;5063962;28;20223;-63
2022/03/03 13:39:34;;;;;;;0.65;0.65;;;6.60;99.90;;;;;;5071203;28;20272;-63
2022/03/03 13:42:08;;;;;;;0.93;0.80;;;6.60;99.90;;;;;;5066772;28;20217;-63
2022/03/03 13:44:46;;;;;;;1.17;0.40;;;6.50;99.90;;;;;;5055693;28;20220;-63
2022/03/03 13:47:24;;;;;;;0.50;0.50;;;6.50;99.90;;;;;;5051553;28;20216;-63
2022/03/03 13:49:57;;;;;;;2.35;0.93;;;6.50;99.90;;;;;;5062519;28;20210;-63
2022/03/03 13:52:33;;;;;;;1.38;0.80;;;6.40;99.90;;;;;;5062058;28;20282;-63
2022/03/03 13:55:14;;;;;;;0.73;0.65;;;6.50;99.90;;;;;;5078108;28;20221;-63
2022/03/03 13:57:48;;;;;;;6.13;1.00;;;6.40;99.90;;;;;;5070982;28;20210;-63
2022/03/03 14:00:22;;;;;;;0.77;0.77;;;6.40;99.90;;;;;;5065372;28;20270;-63
2022/03/03 14:02:55;;;;;;;1.95;1.00;;;6.30;99.90;;;;;;5062433;28;20266;-63
2022/03/03 14:05:44;;;;;;;1.73;0.88;;;6.30;99.90;;;;;;5068358;28;20227;-63
2022/03/03 14:08:22;;;;;;;6.47;1.30;;;6.20;99.90;;;;;;5055575;28;20254;-63